sensor_id;sensor_type;location;lat;lon;timestamp;P1;durP1;ratioP1;P2;durP2;ratioP2
57093;SDS011;42970;50.996;3.706;2023-07-28T00:00:42;5.63;;;2.03;;
57093;SDS011;42970;50.996;3.706;2023-07-28T00:03:07;2.72;;;1.85;;
57093;SDS011;42970;50.996;3.706;2023-07-28T00:05:33;5.38;;;2.63;;
57093;SDS011;42970;50.996;3.706;2023-07-28T00:07:58;8.55;;;2.78;;
57093;SDS011;42970;50.996;3.706;2023-07-28T00:10:24;3.58;;;2.55;;
57093;SDS011;42970;50.996;3.706;2023-07-28T00:12:49;7.72;;;2.47;;
57093;SDS011;42970;50.996;3.706;2023-07-28T00:15:15;5.82;;;2.70;;
57093;SDS011;42970;50.996;3.706;2023-07-28T00:17:40;4.72;;;2.50;;
57093;SDS011;42970;50.996;3.706;2023-07-28T00:20:07;3.47;;;2.75;;
57093;SDS011;42970;50.996;3.706;2023-07-28T00:22:33;4.65;;;3.00;;
57093;SDS011;42970;50.996;3.706;2023-07-28T00:24:59;4.90;;;2.80;;
57093;SDS011;42970;50.996;3.706;2023-07-28T00:27:24;5.40;;;2.67;;
57093;SDS011;42970;50.996;3.706;2023-07-28T00:29:49;6.05;;;2.67;;
57093;SDS011;42970;50.996;3.706;2023-07-28T00:32:15;4.95;;;1.83;;
57093;SDS011;42970;50.996;3.706;2023-07-28T00:34:40;5.50;;;2.80;;
57093;SDS011;42970;50.996;3.706;2023-07-28T00:37:06;5.30;;;3.10;;
57093;SDS011;42970;50.996;3.706;2023-07-28T00:39:31;3.97;;;2.35;;
57093;SDS011;42970;50.996;3.706;2023-07-28T00:41:56;15.48;;;3.42;;
57093;SDS011;42970;50.996;3.706;2023-07-28T00:44:22;8.45;;;2.70;;
57093;SDS011;42970;50.996;3.706;2023-07-28T00:46:47;4.95;;;2.97;;
57093;SDS011;42970;50.996;3.706;2023-07-28T00:49:13;7.65;;;2.90;;
57093;SDS011;42970;50.996;3.706;2023-07-28T00:51:38;3.42;;;2.85;;
57093;SDS011;42970;50.996;3.706;2023-07-28T00:54:05;4.25;;;2.92;;
57093;SDS011;42970;50.996;3.706;2023-07-28T00:56:30;6.60;;;2.50;;
57093;SDS011;42970;50.996;3.706;2023-07-28T00:58:57;6.87;;;3.33;;
57093;SDS011;42970;50.996;3.706;2023-07-28T01:01:22;4.07;;;2.28;;
57093;SDS011;42970;50.996;3.706;2023-07-28T01:03:48;6.22;;;2.95;;
57093;SDS011;42970;50.996;3.706;2023-07-28T01:06:35;4.30;;;3.03;;
57093;SDS011;42970;50.996;3.706;2023-07-28T01:09:12;5.35;;;2.80;;
57093;SDS011;42970;50.996;3.706;2023-07-28T01:12:01;10.73;;;3.33;;
57093;SDS011;42970;50.996;3.706;2023-07-28T01:14:26;3.20;;;2.70;;
57093;SDS011;42970;50.996;3.706;2023-07-28T01:16:51;4.80;;;2.92;;
57093;SDS011;42970;50.996;3.706;2023-07-28T01:19:17;3.53;;;2.30;;
57093;SDS011;42970;50.996;3.706;2023-07-28T01:21:46;5.90;;;2.70;;
57093;SDS011;42970;50.996;3.706;2023-07-28T01:27:20;3.28;;;2.38;;
57093;SDS011;42970;50.996;3.706;2023-07-28T01:29:46;7.63;;;2.80;;
57093;SDS011;42970;50.996;3.706;2023-07-28T01:32:13;5.43;;;2.35;;
57093;SDS011;42970;50.996;3.706;2023-07-28T01:34:39;3.15;;;2.35;;
57093;SDS011;42970;50.996;3.706;2023-07-28T01:37:04;5.57;;;2.60;;
57093;SDS011;42970;50.996;3.706;2023-07-28T01:39:30;9.48;;;2.58;;
57093;SDS011;42970;50.996;3.706;2023-07-28T01:41:56;5.95;;;2.33;;
57093;SDS011;42970;50.996;3.706;2023-07-28T01:44:21;5.10;;;2.40;;
57093;SDS011;42970;50.996;3.706;2023-07-28T01:46:46;3.25;;;2.22;;
57093;SDS011;42970;50.996;3.706;2023-07-28T01:49:12;5.18;;;2.38;;
57093;SDS011;42970;50.996;3.706;2023-07-28T01:51:37;4.07;;;2.55;;
57093;SDS011;42970;50.996;3.706;2023-07-28T01:54:02;7.90;;;2.40;;
57093;SDS011;42970;50.996;3.706;2023-07-28T01:56:28;5.65;;;2.03;;
57093;SDS011;42970;50.996;3.706;2023-07-28T01:58:53;4.03;;;2.00;;
57093;SDS011;42970;50.996;3.706;2023-07-28T02:01:19;3.03;;;2.20;;
57093;SDS011;42970;50.996;3.706;2023-07-28T02:03:44;2.30;;;1.92;;
57093;SDS011;42970;50.996;3.706;2023-07-28T02:06:09;4.88;;;2.03;;
57093;SDS011;42970;50.996;3.706;2023-07-28T02:08:35;3.72;;;2.53;;
57093;SDS011;42970;50.996;3.706;2023-07-28T02:11:00;5.10;;;2.10;;
57093;SDS011;42970;50.996;3.706;2023-07-28T02:13:25;4.45;;;1.80;;
57093;SDS011;42970;50.996;3.706;2023-07-28T02:15:51;2.83;;;1.80;;
57093;SDS011;42970;50.996;3.706;2023-07-28T02:18:16;4.72;;;2.38;;
57093;SDS011;42970;50.996;3.706;2023-07-28T02:20:41;2.65;;;1.80;;
57093;SDS011;42970;50.996;3.706;2023-07-28T02:23:07;4.57;;;2.20;;
57093;SDS011;42970;50.996;3.706;2023-07-28T02:25:32;3.53;;;1.90;;
57093;SDS011;42970;50.996;3.706;2023-07-28T02:27:57;8.50;;;2.72;;
57093;SDS011;42970;50.996;3.706;2023-07-28T02:30:23;6.40;;;2.28;;
57093;SDS011;42970;50.996;3.706;2023-07-28T02:32:48;3.00;;;2.17;;
57093;SDS011;42970;50.996;3.706;2023-07-28T02:35:14;4.80;;;2.10;;
57093;SDS011;42970;50.996;3.706;2023-07-28T02:37:39;6.55;;;2.47;;
57093;SDS011;42970;50.996;3.706;2023-07-28T02:40:05;3.30;;;2.05;;
57093;SDS011;42970;50.996;3.706;2023-07-28T02:42:31;2.35;;;2.00;;
57093;SDS011;42970;50.996;3.706;2023-07-28T02:44:58;1.95;;;1.60;;
57093;SDS011;42970;50.996;3.706;2023-07-28T02:47:24;2.88;;;1.75;;
57093;SDS011;42970;50.996;3.706;2023-07-28T02:49:49;1.67;;;1.50;;
57093;SDS011;42970;50.996;3.706;2023-07-28T02:52:15;1.98;;;1.55;;
57093;SDS011;42970;50.996;3.706;2023-07-28T02:54:40;1.95;;;1.65;;
57093;SDS011;42970;50.996;3.706;2023-07-28T02:57:06;4.40;;;2.22;;
57093;SDS011;42970;50.996;3.706;2023-07-28T02:59:31;6.55;;;1.75;;
57093;SDS011;42970;50.996;3.706;2023-07-28T03:01:56;3.67;;;1.40;;
57093;SDS011;42970;50.996;3.706;2023-07-28T03:04:22;2.58;;;1.60;;
57093;SDS011;42970;50.996;3.706;2023-07-28T03:06:48;2.60;;;1.85;;
57093;SDS011;42970;50.996;3.706;2023-07-28T03:09:13;7.50;;;1.70;;
57093;SDS011;42970;50.996;3.706;2023-07-28T03:11:40;2.10;;;1.52;;
57093;SDS011;42970;50.996;3.706;2023-07-28T03:14:07;2.33;;;1.50;;
57093;SDS011;42970;50.996;3.706;2023-07-28T03:16:33;1.98;;;1.73;;
57093;SDS011;42970;50.996;3.706;2023-07-28T03:18:58;3.05;;;2.33;;
57093;SDS011;42970;50.996;3.706;2023-07-28T03:21:23;3.58;;;1.80;;
57093;SDS011;42970;50.996;3.706;2023-07-28T03:23:49;6.80;;;1.92;;
57093;SDS011;42970;50.996;3.706;2023-07-28T03:26:14;7.07;;;1.85;;
57093;SDS011;42970;50.996;3.706;2023-07-28T03:28:39;3.03;;;1.70;;
57093;SDS011;42970;50.996;3.706;2023-07-28T03:31:05;2.10;;;1.90;;
57093;SDS011;42970;50.996;3.706;2023-07-28T03:33:30;5.85;;;2.20;;
57093;SDS011;42970;50.996;3.706;2023-07-28T03:35:56;4.72;;;1.90;;
57093;SDS011;42970;50.996;3.706;2023-07-28T03:38:21;3.40;;;1.85;;
57093;SDS011;42970;50.996;3.706;2023-07-28T03:40:46;8.68;;;2.50;;
57093;SDS011;42970;50.996;3.706;2023-07-28T03:43:12;3.58;;;2.35;;
57093;SDS011;42970;50.996;3.706;2023-07-28T03:45:37;5.30;;;2.83;;
57093;SDS011;42970;50.996;3.706;2023-07-28T03:48:03;8.05;;;3.17;;
57093;SDS011;42970;50.996;3.706;2023-07-28T03:50:28;10.60;;;3.28;;
57093;SDS011;42970;50.996;3.706;2023-07-28T03:52:53;4.63;;;3.13;;
57093;SDS011;42970;50.996;3.706;2023-07-28T03:55:19;8.20;;;2.58;;
57093;SDS011;42970;50.996;3.706;2023-07-28T03:57:44;5.80;;;3.25;;
57093;SDS011;42970;50.996;3.706;2023-07-28T04:00:10;5.78;;;2.80;;
57093;SDS011;42970;50.996;3.706;2023-07-28T04:02:36;6.10;;;3.25;;
57093;SDS011;42970;50.996;3.706;2023-07-28T04:05:01;10.77;;;2.85;;
57093;SDS011;42970;50.996;3.706;2023-07-28T04:07:27;5.20;;;2.78;;
57093;SDS011;42970;50.996;3.706;2023-07-28T04:09:52;3.03;;;2.70;;
57093;SDS011;42970;50.996;3.706;2023-07-28T04:12:17;3.20;;;2.50;;
57093;SDS011;42970;50.996;3.706;2023-07-28T04:14:43;6.68;;;2.22;;
57093;SDS011;42970;50.996;3.706;2023-07-28T04:17:09;3.60;;;2.20;;
57093;SDS011;42970;50.996;3.706;2023-07-28T04:19:34;3.47;;;2.47;;
57093;SDS011;42970;50.996;3.706;2023-07-28T04:22:00;8.82;;;2.58;;
57093;SDS011;42970;50.996;3.706;2023-07-28T04:24:26;4.28;;;2.60;;
57093;SDS011;42970;50.996;3.706;2023-07-28T04:26:52;3.85;;;2.25;;
57093;SDS011;42970;50.996;3.706;2023-07-28T04:29:18;7.10;;;2.47;;
57093;SDS011;42970;50.996;3.706;2023-07-28T04:31:43;2.35;;;2.00;;
57093;SDS011;42970;50.996;3.706;2023-07-28T04:34:09;4.30;;;2.40;;
57093;SDS011;42970;50.996;3.706;2023-07-28T04:36:34;3.22;;;2.30;;
57093;SDS011;42970;50.996;3.706;2023-07-28T04:39:00;4.40;;;2.67;;
57093;SDS011;42970;50.996;3.706;2023-07-28T04:41:25;3.00;;;2.20;;
57093;SDS011;42970;50.996;3.706;2023-07-28T04:43:51;3.17;;;2.15;;
57093;SDS011;42970;50.996;3.706;2023-07-28T04:46:16;3.50;;;2.75;;
57093;SDS011;42970;50.996;3.706;2023-07-28T04:48:42;3.45;;;2.00;;
57093;SDS011;42970;50.996;3.706;2023-07-28T04:51:07;8.05;;;2.70;;
57093;SDS011;42970;50.996;3.706;2023-07-28T04:53:33;3.30;;;2.13;;
57093;SDS011;42970;50.996;3.706;2023-07-28T04:55:58;3.92;;;2.25;;
57093;SDS011;42970;50.996;3.706;2023-07-28T04:58:24;3.47;;;2.67;;
57093;SDS011;42970;50.996;3.706;2023-07-28T05:00:49;5.05;;;2.60;;
57093;SDS011;42970;50.996;3.706;2023-07-28T05:03:15;4.07;;;2.75;;
57093;SDS011;42970;50.996;3.706;2023-07-28T05:05:42;5.47;;;2.60;;
57093;SDS011;42970;50.996;3.706;2023-07-28T05:08:09;3.92;;;2.92;;
57093;SDS011;42970;50.996;3.706;2023-07-28T05:10:34;4.63;;;2.73;;
57093;SDS011;42970;50.996;3.706;2023-07-28T05:13:00;3.60;;;2.30;;
57093;SDS011;42970;50.996;3.706;2023-07-28T05:15:25;3.30;;;2.23;;
57093;SDS011;42970;50.996;3.706;2023-07-28T05:17:51;2.72;;;2.38;;
57093;SDS011;42970;50.996;3.706;2023-07-28T05:20:16;7.70;;;2.70;;
57093;SDS011;42970;50.996;3.706;2023-07-28T05:22:41;4.15;;;2.35;;
57093;SDS011;42970;50.996;3.706;2023-07-28T05:25:07;2.75;;;2.50;;
57093;SDS011;42970;50.996;3.706;2023-07-28T05:27:32;3.47;;;2.60;;
57093;SDS011;42970;50.996;3.706;2023-07-28T05:29:58;4.22;;;2.63;;
57093;SDS011;42970;50.996;3.706;2023-07-28T05:32:23;2.90;;;2.30;;
57093;SDS011;42970;50.996;3.706;2023-07-28T05:34:49;3.58;;;2.63;;
57093;SDS011;42970;50.996;3.706;2023-07-28T05:37:14;3.85;;;2.10;;
57093;SDS011;42970;50.996;3.706;2023-07-28T05:39:40;4.75;;;2.53;;
57093;SDS011;42970;50.996;3.706;2023-07-28T05:42:05;3.85;;;2.10;;
57093;SDS011;42970;50.996;3.706;2023-07-28T05:44:31;2.88;;;2.38;;
57093;SDS011;42970;50.996;3.706;2023-07-28T05:46:57;4.88;;;2.55;;
57093;SDS011;42970;50.996;3.706;2023-07-28T05:49:22;3.42;;;2.58;;
57093;SDS011;42970;50.996;3.706;2023-07-28T05:51:47;3.17;;;2.28;;
57093;SDS011;42970;50.996;3.706;2023-07-28T05:54:13;4.32;;;2.38;;
57093;SDS011;42970;50.996;3.706;2023-07-28T05:56:40;3.35;;;2.30;;
57093;SDS011;42970;50.996;3.706;2023-07-28T05:59:05;5.47;;;3.90;;
57093;SDS011;42970;50.996;3.706;2023-07-28T06:01:31;3.10;;;2.40;;
57093;SDS011;42970;50.996;3.706;2023-07-28T06:03:56;4.00;;;2.33;;
57093;SDS011;42970;50.996;3.706;2023-07-28T06:06:24;7.70;;;2.58;;
57093;SDS011;42970;50.996;3.706;2023-07-28T06:08:50;5.65;;;2.15;;
57093;SDS011;42970;50.996;3.706;2023-07-28T06:11:15;4.95;;;2.50;;
57093;SDS011;42970;50.996;3.706;2023-07-28T06:13:41;3.97;;;2.20;;
57093;SDS011;42970;50.996;3.706;2023-07-28T06:16:06;4.38;;;2.33;;
57093;SDS011;42970;50.996;3.706;2023-07-28T06:18:32;4.63;;;2.40;;
57093;SDS011;42970;50.996;3.706;2023-07-28T06:20:57;2.92;;;2.17;;
57093;SDS011;42970;50.996;3.706;2023-07-28T06:23:22;2.78;;;1.98;;
57093;SDS011;42970;50.996;3.706;2023-07-28T06:25:49;5.80;;;2.80;;
57093;SDS011;42970;50.996;3.706;2023-07-28T06:28:14;3.22;;;2.25;;
57093;SDS011;42970;50.996;3.706;2023-07-28T06:30:40;5.35;;;2.72;;
57093;SDS011;42970;50.996;3.706;2023-07-28T06:33:06;4.85;;;2.97;;
57093;SDS011;42970;50.996;3.706;2023-07-28T06:35:32;5.45;;;2.75;;
57093;SDS011;42970;50.996;3.706;2023-07-28T06:37:57;3.35;;;2.35;;
57093;SDS011;42970;50.996;3.706;2023-07-28T06:40:25;5.97;;;2.53;;
57093;SDS011;42970;50.996;3.706;2023-07-28T06:42:50;4.63;;;2.70;;
57093;SDS011;42970;50.996;3.706;2023-07-28T06:45:16;5.00;;;2.85;;
57093;SDS011;42970;50.996;3.706;2023-07-28T06:47:41;6.25;;;2.00;;
57093;SDS011;42970;50.996;3.706;2023-07-28T06:50:07;7.80;;;2.73;;
57093;SDS011;42970;50.996;3.706;2023-07-28T06:52:32;3.25;;;2.30;;
57093;SDS011;42970;50.996;3.706;2023-07-28T06:54:58;7.50;;;2.63;;
57093;SDS011;42970;50.996;3.706;2023-07-28T06:57:23;8.60;;;2.88;;
57093;SDS011;42970;50.996;3.706;2023-07-28T06:59:49;4.80;;;2.50;;
57093;SDS011;42970;50.996;3.706;2023-07-28T07:02:15;5.88;;;2.50;;
57093;SDS011;42970;50.996;3.706;2023-07-28T07:04:41;7.70;;;2.53;;
57093;SDS011;42970;50.996;3.706;2023-07-28T07:07:07;7.25;;;2.47;;
57093;SDS011;42970;50.996;3.706;2023-07-28T07:09:32;6.78;;;2.90;;
57093;SDS011;42970;50.996;3.706;2023-07-28T07:11:57;5.30;;;2.23;;
57093;SDS011;42970;50.996;3.706;2023-07-28T07:14:23;6.87;;;2.53;;
57093;SDS011;42970;50.996;3.706;2023-07-28T07:16:48;3.60;;;1.67;;
57093;SDS011;42970;50.996;3.706;2023-07-28T07:19:14;4.10;;;2.75;;
57093;SDS011;42970;50.996;3.706;2023-07-28T07:21:41;8.55;;;2.45;;
57093;SDS011;42970;50.996;3.706;2023-07-28T07:24:07;6.35;;;2.45;;
57093;SDS011;42970;50.996;3.706;2023-07-28T07:26:32;6.78;;;2.63;;
57093;SDS011;42970;50.996;3.706;2023-07-28T07:28:58;5.28;;;2.85;;
57093;SDS011;42970;50.996;3.706;2023-07-28T07:31:23;6.13;;;2.65;;
57093;SDS011;42970;50.996;3.706;2023-07-28T07:33:49;7.13;;;2.65;;
57093;SDS011;42970;50.996;3.706;2023-07-28T07:36:15;3.58;;;2.30;;
57093;SDS011;42970;50.996;3.706;2023-07-28T07:38:41;8.80;;;2.53;;
57093;SDS011;42970;50.996;3.706;2023-07-28T07:41:07;9.77;;;3.15;;
57093;SDS011;42970;50.996;3.706;2023-07-28T07:46:01;6.75;;;2.80;;
57093;SDS011;42970;50.996;3.706;2023-07-28T07:48:27;4.38;;;2.78;;
57093;SDS011;42970;50.996;3.706;2023-07-28T07:50:52;5.38;;;2.45;;
57093;SDS011;42970;50.996;3.706;2023-07-28T07:53:18;2.85;;;1.90;;
57093;SDS011;42970;50.996;3.706;2023-07-28T07:55:44;5.70;;;2.55;;
57093;SDS011;42970;50.996;3.706;2023-07-28T07:58:09;3.83;;;2.13;;
57093;SDS011;42970;50.996;3.706;2023-07-28T08:00:36;11.93;;;2.70;;
57093;SDS011;42970;50.996;3.706;2023-07-28T08:03:03;5.55;;;2.50;;
57093;SDS011;42970;50.996;3.706;2023-07-28T08:05:30;2.63;;;1.67;;
57093;SDS011;42970;50.996;3.706;2023-07-28T08:07:55;2.28;;;1.67;;
57093;SDS011;42970;50.996;3.706;2023-07-28T08:10:21;3.93;;;2.40;;
57093;SDS011;42970;50.996;3.706;2023-07-28T08:12:47;3.95;;;1.83;;
57093;SDS011;42970;50.996;3.706;2023-07-28T08:15:13;4.03;;;1.70;;
57093;SDS011;42970;50.996;3.706;2023-07-28T08:17:38;2.72;;;1.45;;
57093;SDS011;42970;50.996;3.706;2023-07-28T08:20:05;3.30;;;1.80;;
57093;SDS011;42970;50.996;3.706;2023-07-28T08:22:31;2.00;;;1.60;;
57093;SDS011;42970;50.996;3.706;2023-07-28T08:24:57;5.45;;;2.20;;
57093;SDS011;42970;50.996;3.706;2023-07-28T08:27:22;18.38;;;2.42;;
57093;SDS011;42970;50.996;3.706;2023-07-28T08:29:49;3.40;;;1.90;;
57093;SDS011;42970;50.996;3.706;2023-07-28T08:32:14;3.95;;;2.30;;
57093;SDS011;42970;50.996;3.706;2023-07-28T08:34:40;4.05;;;2.63;;
57093;SDS011;42970;50.996;3.706;2023-07-28T08:37:05;3.17;;;2.03;;
57093;SDS011;42970;50.996;3.706;2023-07-28T08:39:32;4.10;;;2.25;;
57093;SDS011;42970;50.996;3.706;2023-07-28T08:42:01;2.95;;;2.00;;
57093;SDS011;42970;50.996;3.706;2023-07-28T08:44:34;4.15;;;2.38;;
57093;SDS011;42970;50.996;3.706;2023-07-28T08:47:00;5.43;;;3.10;;
57093;SDS011;42970;50.996;3.706;2023-07-28T08:49:27;3.50;;;2.70;;
57093;SDS011;42970;50.996;3.706;2023-07-28T08:51:56;6.57;;;2.83;;
57093;SDS011;42970;50.996;3.706;2023-07-28T08:54:23;6.55;;;2.65;;
57093;SDS011;42970;50.996;3.706;2023-07-28T08:56:48;5.88;;;3.05;;
57093;SDS011;42970;50.996;3.706;2023-07-28T08:59:20;3.70;;;3.00;;
57093;SDS011;42970;50.996;3.706;2023-07-28T09:01:51;5.75;;;2.75;;
57093;SDS011;42970;50.996;3.706;2023-07-28T09:04:17;4.38;;;2.92;;
57093;SDS011;42970;50.996;3.706;2023-07-28T09:06:46;4.33;;;2.57;;
57093;SDS011;42970;50.996;3.706;2023-07-28T09:09:13;7.05;;;3.05;;
57093;SDS011;42970;50.996;3.706;2023-07-28T09:11:46;3.50;;;2.40;;
57093;SDS011;42970;50.996;3.706;2023-07-28T09:14:13;3.50;;;2.90;;
57093;SDS011;42970;50.996;3.706;2023-07-28T09:16:41;5.70;;;2.40;;
57093;SDS011;42970;50.996;3.706;2023-07-28T09:19:07;2.85;;;2.45;;
57093;SDS011;42970;50.996;3.706;2023-07-28T09:21:33;5.50;;;2.55;;
57093;SDS011;42970;50.996;3.706;2023-07-28T09:24:00;3.33;;;2.40;;
57093;SDS011;42970;50.996;3.706;2023-07-28T09:26:38;5.20;;;2.50;;
57093;SDS011;42970;50.996;3.706;2023-07-28T09:31:43;5.60;;;2.20;;
57093;SDS011;42970;50.996;3.706;2023-07-28T09:34:09;3.53;;;2.35;;
57093;SDS011;42970;50.996;3.706;2023-07-28T09:36:36;1.80;;;1.58;;
57093;SDS011;42970;50.996;3.706;2023-07-28T09:39:05;2.13;;;1.65;;
57093;SDS011;42970;50.996;3.706;2023-07-28T09:41:35;2.40;;;1.73;;
57093;SDS011;42970;50.996;3.706;2023-07-28T09:44:02;3.50;;;2.25;;
57093;SDS011;42970;50.996;3.706;2023-07-28T09:46:28;4.75;;;1.80;;
57093;SDS011;42970;50.996;3.706;2023-07-28T09:48:55;4.05;;;2.00;;
57093;SDS011;42970;50.996;3.706;2023-07-28T09:51:26;3.92;;;2.28;;
57093;SDS011;42970;50.996;3.706;2023-07-28T09:54:04;2.20;;;1.83;;
57093;SDS011;42970;50.996;3.706;2023-07-28T09:56:31;6.90;;;2.63;;
57093;SDS011;42970;50.996;3.706;2023-07-28T09:58:59;2.50;;;1.70;;
57093;SDS011;42970;50.996;3.706;2023-07-28T10:01:28;1.95;;;1.75;;
57093;SDS011;42970;50.996;3.706;2023-07-28T10:03:54;1.77;;;1.50;;
57093;SDS011;42970;50.996;3.706;2023-07-28T10:06:20;2.00;;;1.52;;
57093;SDS011;42970;50.996;3.706;2023-07-28T10:08:47;4.47;;;1.60;;
57093;SDS011;42970;50.996;3.706;2023-07-28T10:11:13;2.85;;;1.40;;
57093;SDS011;42970;50.996;3.706;2023-07-28T10:13:40;2.08;;;1.30;;
57093;SDS011;42970;50.996;3.706;2023-07-28T10:16:07;1.90;;;1.30;;
57093;SDS011;42970;50.996;3.706;2023-07-28T10:18:34;3.65;;;1.40;;
57093;SDS011;42970;50.996;3.706;2023-07-28T10:21:07;5.72;;;1.20;;
57093;SDS011;42970;50.996;3.706;2023-07-28T10:23:35;1.92;;;0.95;;
57093;SDS011;42970;50.996;3.706;2023-07-28T10:26:03;1.15;;;0.60;;
57093;SDS011;42970;50.996;3.706;2023-07-28T10:28:31;0.52;;;0.52;;
57093;SDS011;42970;50.996;3.706;2023-07-28T10:31:03;0.80;;;0.50;;
57093;SDS011;42970;50.996;3.706;2023-07-28T10:33:40;2.15;;;0.70;;
57093;SDS011;42970;50.996;3.706;2023-07-28T10:36:17;4.40;;;0.90;;
57093;SDS011;42970;50.996;3.706;2023-07-28T10:38:43;0.90;;;0.85;;
57093;SDS011;42970;50.996;3.706;2023-07-28T10:41:13;1.27;;;0.80;;
57093;SDS011;42970;50.996;3.706;2023-07-28T10:43:41;1.73;;;0.80;;
57093;SDS011;42970;50.996;3.706;2023-07-28T10:46:07;2.65;;;1.00;;
57093;SDS011;42970;50.996;3.706;2023-07-28T10:48:34;1.50;;;1.00;;
57093;SDS011;42970;50.996;3.706;2023-07-28T10:51:00;1.40;;;1.10;;
57093;SDS011;42970;50.996;3.706;2023-07-28T10:53:26;3.42;;;1.30;;
57093;SDS011;42970;50.996;3.706;2023-07-28T10:55:52;2.22;;;1.20;;
57093;SDS011;42970;50.996;3.706;2023-07-28T10:58:18;2.33;;;1.00;;
57093;SDS011;42970;50.996;3.706;2023-07-28T11:00:45;7.67;;;1.50;;
57093;SDS011;42970;50.996;3.706;2023-07-28T11:03:11;3.08;;;1.05;;
57093;SDS011;42970;50.996;3.706;2023-07-28T11:05:37;2.50;;;1.00;;
57093;SDS011;42970;50.996;3.706;2023-07-28T11:08:03;2.90;;;1.13;;
57093;SDS011;42970;50.996;3.706;2023-07-28T11:10:32;1.35;;;0.93;;
57093;SDS011;42970;50.996;3.706;2023-07-28T11:13:00;7.63;;;1.35;;
57093;SDS011;42970;50.996;3.706;2023-07-28T11:15:27;1.35;;;1.05;;
57093;SDS011;42970;50.996;3.706;2023-07-28T11:17:53;1.05;;;0.95;;
57093;SDS011;42970;50.996;3.706;2023-07-28T11:20:23;3.05;;;1.40;;
57093;SDS011;42970;50.996;3.706;2023-07-28T11:25:26;2.10;;;1.30;;
57093;SDS011;42970;50.996;3.706;2023-07-28T11:27:52;5.20;;;1.65;;
57093;SDS011;42970;50.996;3.706;2023-07-28T11:54:44;1.30;;;1.10;;
57093;SDS011;42970;50.996;3.706;2023-07-28T12:14:46;1.15;;;0.73;;
57093;SDS011;42970;50.996;3.706;2023-07-28T12:17:18;5.32;;;0.98;;
57093;SDS011;42970;50.996;3.706;2023-07-28T12:22:42;2.27;;;1.00;;
57093;SDS011;42970;50.996;3.706;2023-07-28T12:25:08;1.58;;;0.93;;
57093;SDS011;42970;50.996;3.706;2023-07-28T12:27:34;3.10;;;0.90;;
57093;SDS011;42970;50.996;3.706;2023-07-28T12:30:00;1.20;;;0.82;;
57093;SDS011;42970;50.996;3.706;2023-07-28T12:32:27;2.65;;;1.00;;
57093;SDS011;42970;50.996;3.706;2023-07-28T12:34:52;1.25;;;0.85;;
57093;SDS011;42970;50.996;3.706;2023-07-28T12:37:18;1.35;;;0.90;;
57093;SDS011;42970;50.996;3.706;2023-07-28T12:39:59;2.30;;;0.90;;
57093;SDS011;42970;50.996;3.706;2023-07-28T12:42:27;4.80;;;1.10;;
57093;SDS011;42970;50.996;3.706;2023-07-28T12:44:52;2.00;;;1.20;;
57093;SDS011;42970;50.996;3.706;2023-07-28T12:47:18;0.73;;;0.60;;
57093;SDS011;42970;50.996;3.706;2023-07-28T12:49:43;2.92;;;0.93;;
57093;SDS011;42970;50.996;3.706;2023-07-28T12:52:08;1.70;;;0.90;;
57093;SDS011;42970;50.996;3.706;2023-07-28T12:54:34;1.75;;;0.90;;
57093;SDS011;42970;50.996;3.706;2023-07-28T12:57:00;1.20;;;1.00;;
57093;SDS011;42970;50.996;3.706;2023-07-28T12:59:26;1.83;;;1.02;;
57093;SDS011;42970;50.996;3.706;2023-07-28T13:01:52;1.40;;;1.10;;
57093;SDS011;42970;50.996;3.706;2023-07-28T13:04:17;3.07;;;1.10;;
57093;SDS011;42970;50.996;3.706;2023-07-28T13:06:44;4.53;;;1.20;;
57093;SDS011;42970;50.996;3.706;2023-07-28T13:09:09;1.70;;;1.10;;
57093;SDS011;42970;50.996;3.706;2023-07-28T13:11:35;3.20;;;1.30;;
57093;SDS011;42970;50.996;3.706;2023-07-28T13:14:00;1.20;;;1.10;;
57093;SDS011;42970;50.996;3.706;2023-07-28T13:16:26;10.95;;;1.25;;
57093;SDS011;42970;50.996;3.706;2023-07-28T13:18:51;1.77;;;1.30;;
57093;SDS011;42970;50.996;3.706;2023-07-28T13:21:17;2.45;;;1.38;;
57093;SDS011;42970;50.996;3.706;2023-07-28T13:23:43;1.13;;;1.02;;
57093;SDS011;42970;50.996;3.706;2023-07-28T13:26:08;2.97;;;1.45;;
57093;SDS011;42970;50.996;3.706;2023-07-28T13:28:34;2.53;;;1.40;;
57093;SDS011;42970;50.996;3.706;2023-07-28T13:31:03;2.25;;;1.15;;
57093;SDS011;42970;50.996;3.706;2023-07-28T13:33:29;1.02;;;0.88;;
57093;SDS011;42970;50.996;3.706;2023-07-28T13:35:55;5.03;;;1.30;;
57093;SDS011;42970;50.996;3.706;2023-07-28T13:38:20;3.25;;;1.40;;
57093;SDS011;42970;50.996;3.706;2023-07-28T13:40:46;6.18;;;1.23;;
57093;SDS011;42970;50.996;3.706;2023-07-28T13:43:11;2.15;;;1.30;;
57093;SDS011;42970;50.996;3.706;2023-07-28T13:45:36;1.43;;;1.20;;
57093;SDS011;42970;50.996;3.706;2023-07-28T13:48:02;1.40;;;1.30;;
57093;SDS011;42970;50.996;3.706;2023-07-28T13:50:28;3.03;;;1.40;;
57093;SDS011;42970;50.996;3.706;2023-07-28T13:52:53;2.92;;;1.40;;
57093;SDS011;42970;50.996;3.706;2023-07-28T13:55:19;2.17;;;1.30;;
57093;SDS011;42970;50.996;3.706;2023-07-28T13:57:44;1.70;;;1.20;;
57093;SDS011;42970;50.996;3.706;2023-07-28T14:00:10;2.63;;;1.35;;
57093;SDS011;42970;50.996;3.706;2023-07-28T14:02:36;1.58;;;1.35;;
57093;SDS011;42970;50.996;3.706;2023-07-28T14:05:02;8.43;;;1.58;;
57093;SDS011;42970;50.996;3.706;2023-07-28T14:07:28;2.25;;;1.30;;
57093;SDS011;42970;50.996;3.706;2023-07-28T14:09:54;2.65;;;1.33;;
57093;SDS011;42970;50.996;3.706;2023-07-28T14:12:19;4.00;;;1.20;;
57093;SDS011;42970;50.996;3.706;2023-07-28T14:14:44;5.93;;;1.35;;
57093;SDS011;42970;50.996;3.706;2023-07-28T14:17:10;2.17;;;1.42;;
57093;SDS011;42970;50.996;3.706;2023-07-28T14:19:37;2.58;;;1.30;;
57093;SDS011;42970;50.996;3.706;2023-07-28T14:22:03;1.92;;;1.05;;
57093;SDS011;42970;50.996;3.706;2023-07-28T14:24:29;1.70;;;1.30;;
57093;SDS011;42970;50.996;3.706;2023-07-28T14:26:54;1.20;;;1.10;;
57093;SDS011;42970;50.996;3.706;2023-07-28T14:29:20;1.83;;;1.13;;
57093;SDS011;42970;50.996;3.706;2023-07-28T14:31:45;1.42;;;0.85;;
57093;SDS011;42970;50.996;3.706;2023-07-28T14:34:10;1.58;;;1.33;;
57093;SDS011;42970;50.996;3.706;2023-07-28T14:36:36;1.50;;;1.02;;
57093;SDS011;42970;50.996;3.706;2023-07-28T14:39:01;1.42;;;1.30;;
57093;SDS011;42970;50.996;3.706;2023-07-28T14:41:27;2.20;;;1.13;;
57093;SDS011;42970;50.996;3.706;2023-07-28T14:43:52;1.75;;;1.30;;
57093;SDS011;42970;50.996;3.706;2023-07-28T14:46:18;3.58;;;1.45;;
57093;SDS011;42970;50.996;3.706;2023-07-28T14:48:43;2.40;;;1.00;;
57093;SDS011;42970;50.996;3.706;2023-07-28T14:51:09;1.60;;;1.33;;
57093;SDS011;42970;50.996;3.706;2023-07-28T14:53:37;2.25;;;1.65;;
57093;SDS011;42970;50.996;3.706;2023-07-28T14:56:07;1.58;;;1.35;;
57093;SDS011;42970;50.996;3.706;2023-07-28T14:58:33;6.25;;;1.20;;
57093;SDS011;42970;50.996;3.706;2023-07-28T15:00:58;3.15;;;1.70;;
57093;SDS011;42970;50.996;3.706;2023-07-28T15:03:26;3.05;;;1.35;;
57093;SDS011;42970;50.996;3.706;2023-07-28T15:05:53;1.75;;;1.30;;
57093;SDS011;42970;50.996;3.706;2023-07-28T15:08:18;2.72;;;1.40;;
57093;SDS011;42970;50.996;3.706;2023-07-28T15:10:44;2.95;;;1.30;;
57093;SDS011;42970;50.996;3.706;2023-07-28T15:13:09;2.05;;;1.30;;
57093;SDS011;42970;50.996;3.706;2023-07-28T15:15:35;3.70;;;1.15;;
57093;SDS011;42970;50.996;3.706;2023-07-28T15:18:00;4.03;;;1.10;;
57093;SDS011;42970;50.996;3.706;2023-07-28T15:20:25;2.17;;;1.45;;
57093;SDS011;42970;50.996;3.706;2023-07-28T15:22:51;2.22;;;1.33;;
57093;SDS011;42970;50.996;3.706;2023-07-28T15:25:16;2.57;;;1.10;;
57093;SDS011;42970;50.996;3.706;2023-07-28T15:27:42;1.15;;;1.05;;
57093;SDS011;42970;50.996;3.706;2023-07-28T15:30:08;2.90;;;1.53;;
57093;SDS011;42970;50.996;3.706;2023-07-28T15:32:35;2.63;;;1.27;;
57093;SDS011;42970;50.996;3.706;2023-07-28T15:35:00;2.67;;;1.10;;
57093;SDS011;42970;50.996;3.706;2023-07-28T15:37:26;3.38;;;1.20;;